Time;durP1;ratioP1;P1;durP2;ratioP2;P2;SDS_P1;SDS_P2;PMS_P1;PMS_P2;Temp;Humidity;BMP_temperature;BMP_pressure;BME280_temperature;BME280_humidity;BME280_pressure;Samples;Min_cycle;Max_cycle;Signal;HPM_P1;HPM_P2
2023/05/09 00:01:16;;;;;;;10.98;4.82;;;13.60;99.90;;;;;;5091265;28;20176;-75
2023/05/09 00:03:42;;;;;;;9.40;5.00;;;13.60;99.90;;;;;;5090858;28;20652;-74
2023/05/09 00:06:08;;;;;;;8.77;4.60;;;13.60;99.90;;;;;;5090780;28;20191;-73
2023/05/09 00:08:34;;;;;;;10.20;4.90;;;13.50;99.90;;;;;;5090893;28;20546;-74
2023/05/09 00:11:01;;;;;;;11.82;4.68;;;13.50;99.90;;;;;;5090869;28;20168;-75
2023/05/09 00:13:27;;;;;;;7.50;4.65;;;13.50;99.90;;;;;;5092951;28;20229;-75
2023/05/09 00:15:52;;;;;;;8.73;5.18;;;13.60;99.90;;;;;;5094753;28;20195;-75
2023/05/09 00:18:19;;;;;;;11.07;4.88;;;13.60;99.90;;;;;;5093317;28;20277;-75
2023/05/09 00:20:45;;;;;;;7.47;4.57;;;13.50;99.90;;;;;;5093566;28;20179;-76
2023/05/09 00:23:10;;;;;;;7.93;4.55;;;13.60;99.90;;;;;;5094718;28;20193;-78
2023/05/09 00:25:36;;;;;;;7.78;4.38;;;13.60;99.90;;;;;;5093210;28;20257;-76
2023/05/09 00:28:01;;;;;;;7.65;4.68;;;13.60;99.90;;;;;;5094621;28;20179;-76
2023/05/09 00:30:27;;;;;;;6.38;4.30;;;13.50;99.90;;;;;;5094557;28;20171;-73
2023/05/09 00:32:52;;;;;;;6.93;4.10;;;13.60;99.90;;;;;;5094320;28;20220;-80
2023/05/09 00:35:18;;;;;;;7.07;4.60;;;;;;;;;;5094838;28;20211;-80
2023/05/09 00:37:44;;;;;;;6.38;4.35;;;13.60;99.90;;;;;;5094445;28;20645;-79
2023/05/09 00:40:10;;;;;;;8.48;4.75;;;13.50;99.90;;;;;;5094238;28;20171;-79
2023/05/09 00:42:37;;;;;;;6.15;4.22;;;13.50;99.90;;;;;;5075957;28;20666;-79
2023/05/09 00:45:03;;;;;;;8.65;5.15;;;13.40;99.90;;;;;;5085863;28;20295;-73
2023/05/09 00:47:28;;;;;;;9.50;4.75;;;13.40;99.90;;;;;;5082497;28;20217;-68
2023/05/09 00:49:56;;;;;;;9.02;5.35;;;13.50;99.90;;;;;;5092550;28;20182;-68
2023/05/09 00:52:24;;;;;;;7.00;4.43;;;13.50;99.90;;;;;;5094020;28;20168;-71
2023/05/09 00:54:54;;;;;;;8.13;4.90;;;13.40;99.90;;;;;;5094149;28;20167;-73
2023/05/09 00:57:21;;;;;;;8.38;4.97;;;13.40;99.90;;;;;;5093948;28;20221;-73
2023/05/09 00:59:47;;;;;;;7.03;4.38;;;13.50;99.90;;;;;;5078191;28;20614;-72
2023/05/09 01:02:13;;;;;;;7.75;4.93;;;13.40;99.90;;;;;;5073661;28;20254;-72
2023/05/09 01:04:39;;;;;;;8.52;4.70;;;13.50;99.90;;;;;;5080002;28;20242;-72
2023/05/09 01:07:27;;;;;;;6.55;3.90;;;13.50;99.90;;;;;;5093556;28;20251;-73
2023/05/09 01:10:12;;;;;;;5.97;3.45;;;13.50;99.90;;;;;;5093892;28;20167;-72
2023/05/09 01:12:47;;;;;;;4.53;3.25;;;13.50;99.90;;;;;;5093605;28;20179;-73
2023/05/09 01:15:12;;;;;;;3.08;2.08;;;13.40;99.90;;;;;;5093478;28;20160;-73
2023/05/09 01:17:50;;;;;;;3.95;2.50;;;13.40;99.90;;;;;;5075253;28;20183;-73
2023/05/09 01:20:39;;;;;;;2.17;1.70;;;13.40;99.90;;;;;;5093614;28;20627;-72
2023/05/09 01:23:30;;;;;;;3.05;2.20;;;13.40;99.90;;;;;;5093641;28;20241;-73
2023/05/09 01:26:24;;;;;;;3.67;2.10;;;13.40;99.90;;;;;;5074261;28;20215;-71
2023/05/09 01:29:09;;;;;;;5.25;2.15;;;13.40;99.90;;;;;;5093359;28;20168;-73
2023/05/09 01:31:37;;;;;;;3.05;2.15;;;13.40;99.90;;;;;;5093311;28;20168;-73
2023/05/09 01:34:05;;;;;;;2.67;2.20;;;13.40;99.90;;;;;;5093110;28;20290;-73
2023/05/09 01:36:33;;;;;;;3.30;2.05;;;13.40;99.90;;;;;;5092967;28;20297;-73
2023/05/09 01:39:00;;;;;;;3.08;2.40;;;13.40;99.90;;;;;;5093425;28;20172;-73
2023/05/09 01:41:29;;;;;;;3.17;2.53;;;13.50;99.90;;;;;;5093480;28;20179;-73
2023/05/09 01:43:59;;;;;;;4.13;2.45;;;13.50;99.90;;;;;;5093125;28;20258;-72
2023/05/09 01:46:27;;;;;;;3.90;2.25;;;13.50;99.90;;;;;;5093259;28;20211;-72
2023/05/09 01:48:54;;;;;;;3.45;2.30;;;13.30;99.90;;;;;;5092894;28;20171;-76
2023/05/09 01:51:21;;;;;;;4.78;2.20;;;13.40;99.90;;;;;;5093181;28;20172;-78
2023/05/09 01:53:48;;;;;;;3.63;2.67;;;13.40;99.90;;;;;;5092969;28;20200;-78
2023/05/09 01:56:15;;;;;;;4.32;2.47;;;13.40;99.90;;;;;;5093151;28;20184;-78
2023/05/09 01:58:42;;;;;;;3.20;2.22;;;13.40;99.90;;;;;;5092947;28;20164;-77
2023/05/09 02:01:09;;;;;;;6.47;2.78;;;13.40;99.90;;;;;;5092901;28;20188;-78
2023/05/09 02:03:37;;;;;;;5.65;2.92;;;13.40;99.90;;;;;;5092666;28;20175;-79
2023/05/09 02:06:04;;;;;;;6.55;3.10;;;13.40;99.90;;;;;;5092922;28;20211;-79
2023/05/09 02:08:31;;;;;;;4.00;3.00;;;13.60;99.90;;;;;;5092257;28;20168;-73
2023/05/09 02:10:57;;;;;;;10.60;4.07;;;13.50;99.90;;;;;;5092399;28;20176;-75
2023/05/09 02:13:23;;;;;;;5.97;4.07;;;13.50;99.90;;;;;;5092027;28;20243;-74
2023/05/09 02:15:49;;;;;;;8.73;4.03;;;13.50;99.90;;;;;;5091810;28;20190;-73
2023/05/09 02:18:15;;;;;;;5.70;4.57;;;13.50;99.90;;;;;;5092088;28;20627;-73
2023/05/09 02:20:41;;;;;;;7.82;5.13;;;13.50;99.90;;;;;;5092348;28;20176;-74
2023/05/09 02:23:07;;;;;;;9.48;5.38;;;13.50;99.90;;;;;;5092445;28;20711;-72
2023/05/09 02:25:33;;;;;;;8.52;5.53;;;13.40;99.90;;;;;;5091910;28;20705;-72
2023/05/09 02:28:00;;;;;;;9.03;5.43;;;13.50;99.90;;;;;;5092425;28;20168;-73
2023/05/09 02:30:32;;;;;;;7.70;5.93;;;13.50;99.90;;;;;;5092109;28;20692;-72
2023/05/09 02:33:02;;;;;;;8.57;5.47;;;13.40;99.90;;;;;;5074126;28;20215;-72
2023/05/09 02:35:28;;;;;;;10.52;5.90;;;13.50;99.90;;;;;;5092398;28;20199;-73
2023/05/09 02:37:55;;;;;;;7.97;5.60;;;13.00;99.90;;;;;;5092110;28;20168;-73
2023/05/09 02:40:22;;;;;;;9.77;6.00;;;13.40;99.90;;;;;;5092284;28;20640;-73
2023/05/09 02:42:47;;;;;;;9.25;5.80;;;13.40;99.90;;;;;;5092080;28;20191;-74
2023/05/09 02:45:13;;;;;;;9.20;5.95;;;13.40;99.90;;;;;;5092008;28;20258;-73
2023/05/09 02:47:38;;;;;;;11.10;6.33;;;13.60;99.90;;;;;;5091924;28;20176;-73
2023/05/09 02:50:05;;;;;;;14.88;7.20;;;13.40;99.90;;;;;;5091853;28;20176;-74
2023/05/09 02:52:31;;;;;;;7.40;5.03;;;13.50;99.90;;;;;;5091956;28;20176;-73
2023/05/09 02:54:57;;;;;;;7.88;4.60;;;13.40;99.90;;;;;;5084978;28;20259;-73
2023/05/09 02:57:22;;;;;;;6.60;4.63;;;13.40;99.90;;;;;;5071629;28;20267;-72
2023/05/09 02:59:48;;;;;;;9.30;4.90;;;13.40;99.90;;;;;;5085512;28;20260;-73
2023/05/09 03:02:14;;;;;;;10.18;5.55;;;13.40;99.90;;;;;;5080311;28;20176;-73
2023/05/09 03:04:40;;;;;;;7.30;5.50;;;13.40;99.90;;;;;;5104290;28;20224;-73
2023/05/09 03:07:05;;;;;;;10.27;6.07;;;13.30;99.90;;;;;;5085774;28;20175;-73
2023/05/09 03:09:31;;;;;;;9.45;6.10;;;13.40;99.90;;;;;;5076656;28;20172;-73
2023/05/09 03:11:57;;;;;;;10.82;5.97;;;13.20;99.90;;;;;;5082308;28;20637;-73
2023/05/09 03:14:22;;;;;;;12.52;6.47;;;13.30;99.90;;;;;;5070867;28;20176;-74
2023/05/09 03:16:48;;;;;;;12.03;5.93;;;13.40;99.90;;;;;;5086555;28;20780;-73
2023/05/09 03:19:14;;;;;;;10.90;6.13;;;13.40;99.90;;;;;;5080266;28;20207;-74
2023/05/09 03:21:40;;;;;;;13.03;6.27;;;13.40;99.90;;;;;;5075724;28;20185;-74
2023/05/09 03:24:07;;;;;;;12.00;6.78;;;13.40;99.90;;;;;;5089007;28;20178;-84
2023/05/09 03:26:34;;;;;;;14.40;6.47;;;13.50;99.90;;;;;;5090502;28;20182;-78
2023/05/09 03:29:00;;;;;;;10.07;5.57;;;13.30;99.90;;;;;;5078486;28;20172;-77
2023/05/09 03:31:26;;;;;;;11.27;5.50;;;13.40;99.90;;;;;;5074400;28;20187;-77
2023/05/09 03:33:51;;;;;;;9.80;5.57;;;13.30;99.90;;;;;;5090377;28;20306;-78
2023/05/09 03:36:17;;;;;;;14.40;5.70;;;13.40;99.90;;;;;;5089565;28;20179;-78
2023/05/09 03:38:43;;;;;;;10.00;5.13;;;13.30;99.90;;;;;;5071108;28;20173;-78
2023/05/09 03:41:08;;;;;;;8.95;5.10;;;13.30;99.90;;;;;;5071099;28;20181;-76
2023/05/09 03:43:34;;;;;;;9.05;4.93;;;13.30;99.90;;;;;;5071257;28;20213;-77
2023/05/09 03:46:00;;;;;;;11.10;6.37;;;13.20;99.90;;;;;;5078509;28;20675;-78
2023/05/09 03:48:25;;;;;;;11.87;6.07;;;13.20;99.90;;;;;;5082400;28;20177;-78
2023/05/09 03:50:51;;;;;;;13.43;6.03;;;13.30;99.90;;;;;;5070878;28;20224;-78
2023/05/09 03:53:16;;;;;;;13.37;6.10;;;13.20;99.90;;;;;;5089218;28;20249;-78
2023/05/09 03:55:42;;;;;;;9.65;5.05;;;13.20;99.90;;;;;;5091320;28;20199;-78
2023/05/09 03:58:08;;;;;;;11.93;5.80;;;13.20;99.90;;;;;;5090915;28;20257;-74
2023/05/09 04:00:34;;;;;;;9.73;6.00;;;;;;;;;;5081479;28;20227;-74
2023/05/09 04:03:00;;;;;;;13.02;6.53;;;13.20;99.90;;;;;;5083427;28;20644;-74
2023/05/09 04:05:26;;;;;;;13.80;6.60;;;13.30;99.90;;;;;;5068269;28;20298;-74
2023/05/09 04:07:51;;;;;;;11.60;5.73;;;13.10;99.90;;;;;;5079598;28;20632;-74
2023/05/09 04:10:17;;;;;;;15.83;6.27;;;13.10;99.90;;;;;;5070451;28;20246;-73
2023/05/09 04:12:43;;;;;;;11.17;6.77;;;13.10;99.90;;;;;;5090745;28;20171;-72
2023/05/09 04:15:09;;;;;;;26.70;6.40;;;13.10;99.90;;;;;;5090834;28;20375;-73
2023/05/09 04:17:35;;;;;;;14.13;5.63;;;13.10;99.90;;;;;;5090974;28;20538;-74
2023/05/09 04:20:01;;;;;;;12.70;5.43;;;13.10;99.90;;;;;;5090544;28;20175;-74
2023/05/09 04:22:27;;;;;;;17.63;6.33;;;13.00;99.90;;;;;;5090464;28;20164;-74
2023/05/09 04:24:53;;;;;;;12.87;5.40;;;13.00;99.90;;;;;;5090541;28;20557;-74
2023/05/09 04:27:18;;;;;;;14.97;5.90;;;13.00;99.90;;;;;;5090724;28;20172;-74
2023/05/09 04:29:44;;;;;;;16.00;6.53;;;12.90;99.90;;;;;;5090676;28;20215;-74
2023/05/09 04:32:10;;;;;;;18.57;6.17;;;;;;;;;;5090713;28;20171;-73
2023/05/09 04:34:36;;;;;;;16.47;7.10;;;12.90;99.90;;;;;;5090447;28;20303;-74
2023/05/09 04:37:02;;;;;;;15.77;7.13;;;;;;;;;;5090595;28;20212;-71
2023/05/09 04:39:29;;;;;;;15.90;6.07;;;13.00;99.90;;;;;;5090685;28;20176;-77
2023/05/09 04:41:54;;;;;;;14.33;6.43;;;13.00;99.90;;;;;;5090634;28;20172;-78
2023/05/09 04:44:20;;;;;;;13.73;6.30;;;13.10;99.90;;;;;;5090637;28;20192;-78
2023/05/09 04:46:46;;;;;;;15.73;5.80;;;;;;;;;;5072639;28;20175;-78
2023/05/09 04:49:12;;;;;;;17.20;5.90;;;13.00;99.90;;;;;;5090616;28;20156;-78
2023/05/09 04:51:37;;;;;;;14.10;4.90;;;13.00;99.90;;;;;;5090573;28;20176;-77
2023/05/09 04:54:03;;;;;;;13.93;5.30;;;13.00;99.90;;;;;;5090390;28;20168;-78
2023/05/09 04:56:28;;;;;;;12.30;4.87;;;13.00;99.90;;;;;;5089307;28;20184;-77
2023/05/09 04:58:54;;;;;;;14.83;5.00;;;13.00;99.90;;;;;;5090185;28;20522;-77
2023/05/09 05:01:20;;;;;;;11.80;5.43;;;13.00;99.90;;;;;;5093461;28;20172;-77
2023/05/09 05:03:46;;;;;;;14.37;4.73;;;;;;;;;;5093958;28;20176;-77
2023/05/09 05:06:11;;;;;;;14.10;4.70;;;13.00;99.90;;;;;;5093376;28;20208;-77
2023/05/09 05:08:37;;;;;;;9.50;4.20;;;12.90;99.90;;;;;;5093792;28;20536;-73
2023/05/09 05:11:03;;;;;;;12.63;4.60;;;;;;;;;;5075585;28;20220;-73
2023/05/09 05:13:28;;;;;;;12.00;4.67;;;12.90;99.90;;;;;;5093556;28;20174;-73
2023/05/09 05:15:55;;;;;;;10.70;5.00;;;12.90;99.90;;;;;;5092597;28;20195;-73
2023/05/09 05:18:21;;;;;;;15.05;5.68;;;12.90;99.90;;;;;;5081253;28;20270;-73
2023/05/09 05:20:46;;;;;;;10.83;6.03;;;12.90;99.90;;;;;;5077228;28;20295;-74
2023/05/09 05:23:12;;;;;;;8.27;4.45;;;13.00;99.90;;;;;;5085054;28;20267;-73
2023/05/09 05:25:37;;;;;;;13.33;5.43;;;13.00;99.90;;;;;;5093441;28;20707;-73
2023/05/09 05:28:03;;;;;;;10.90;6.20;;;13.00;99.90;;;;;;5093384;28;20665;-73
2023/05/09 05:30:29;;;;;;;11.00;5.47;;;13.00;99.90;;;;;;5093688;28;20569;-74
2023/05/09 05:32:55;;;;;;;10.20;5.03;;;;;;;;;;5093741;28;20255;-73
2023/05/09 05:35:23;;;;;;;11.77;5.77;;;;;;;;;;5093271;28;20179;-73
2023/05/09 05:37:49;;;;;;;11.37;6.10;;;13.40;99.90;;;;;;5093411;28;20168;-74
2023/05/09 05:40:15;;;;;;;12.10;5.28;;;13.10;99.90;;;;;;5093222;28;20219;-74
2023/05/09 05:42:40;;;;;;;10.73;5.20;;;13.10;99.90;;;;;;5093503;28;20256;-74
2023/05/09 05:45:07;;;;;;;10.03;4.93;;;13.10;99.90;;;;;;5093016;28;20260;-74
2023/05/09 05:47:33;;;;;;;13.00;5.57;;;13.10;99.90;;;;;;5093132;28;20176;-74
2023/05/09 05:50:00;;;;;;;14.83;5.80;;;13.20;99.90;;;;;;5093105;28;20176;-73
2023/05/09 05:52:26;;;;;;;13.60;6.17;;;13.10;99.90;;;;;;5092946;28;20180;-74
2023/05/09 05:54:52;;;;;;;16.05;6.25;;;13.10;99.90;;;;;;5091590;28;20168;-74
2023/05/09 05:57:18;;;;;;;13.73;5.60;;;13.00;99.90;;;;;;5093143;28;20194;-73
2023/05/09 05:59:48;;;;;;;14.32;5.25;;;13.00;99.90;;;;;;5092791;28;20184;-74
2023/05/09 06:02:15;;;;;;;12.93;5.90;;;12.90;99.90;;;;;;5092929;28;20167;-75
2023/05/09 06:04:41;;;;;;;14.07;5.72;;;12.90;99.90;;;;;;5074435;28;20199;-75
2023/05/09 06:07:08;;;;;;;12.20;6.00;;;12.80;99.90;;;;;;5092601;28;20184;-74
2023/05/09 06:09:33;;;;;;;12.23;5.28;;;12.90;99.90;;;;;;5092587;28;20336;-74
2023/05/09 06:11:59;;;;;;;8.60;5.43;;;12.80;99.90;;;;;;5092055;28;20266;-74
2023/05/09 06:14:25;;;;;;;11.50;4.43;;;12.90;99.90;;;;;;5092270;28;20164;-74
2023/05/09 06:16:50;;;;;;;13.13;4.47;;;12.80;99.90;;;;;;5073908;28;20187;-74
2023/05/09 06:19:16;;;;;;;8.18;4.57;;;12.80;99.90;;;;;;5091902;28;20541;-74
2023/05/09 06:21:42;;;;;;;11.00;4.30;;;13.00;99.90;;;;;;5102982;28;20167;-80
2023/05/09 06:24:08;;;;;;;7.60;3.90;;;12.90;99.90;;;;;;5094307;28;20210;-80
2023/05/09 06:26:34;;;;;;;8.68;4.32;;;13.00;99.90;;;;;;5078465;28;20885;-81
2023/05/09 06:28:59;;;;;;;10.63;5.03;;;12.90;99.90;;;;;;5063073;28;20190;-81
2023/05/09 06:31:25;;;;;;;15.00;5.20;;;13.00;99.90;;;;;;5072966;28;20873;-80
2023/05/09 06:33:51;;;;;;;16.03;6.57;;;13.10;99.90;;;;;;5072309;28;20689;-80
2023/05/09 06:36:17;;;;;;;15.20;5.93;;;13.10;99.90;;;;;;5058168;28;20173;-79
2023/05/09 06:38:42;;;;;;;11.25;4.68;;;13.20;99.90;;;;;;5091784;28;20176;-80
2023/05/09 06:41:09;;;;;;;10.75;4.10;;;13.30;99.90;;;;;;5091912;28;20530;-79
2023/05/09 06:43:35;;;;;;;8.13;3.30;;;13.30;99.90;;;;;;5091954;28;20211;-80
2023/05/09 06:46:01;;;;;;;9.90;4.10;;;13.40;99.90;;;;;;5092003;28;20243;-79
2023/05/09 06:48:27;;;;;;;8.40;3.35;;;13.50;99.90;;;;;;5092233;28;20175;-79
2023/05/09 06:50:52;;;;;;;3.92;2.30;;;13.70;99.90;;;;;;5091882;28;20175;-78
2023/05/09 06:53:18;;;;;;;3.90;1.85;;;13.60;99.90;;;;;;5073959;28;20164;-74
2023/05/09 06:55:43;;;;;;;4.40;2.22;;;13.80;99.90;;;;;;5092176;28;20701;-79
2023/05/09 06:58:10;;;;;;;3.88;1.77;;;14.00;99.90;;;;;;5091442;28;20164;-79
2023/05/09 07:00:35;;;;;;;3.50;1.52;;;14.30;99.90;;;;;;5088239;28;20188;-78
2023/05/09 07:03:01;;;;;;;2.55;1.55;;;14.40;99.90;;;;;;5082485;28;20513;-72
2023/05/09 07:05:26;;;;;;;4.18;1.90;;;14.50;99.90;;;;;;5071262;28;20208;-73
2023/05/09 07:07:53;;;;;;;3.25;1.60;;;14.40;99.90;;;;;;5071111;28;20712;-73
2023/05/09 07:10:21;;;;;;;4.05;2.03;;;14.40;99.90;;;;;;5074337;28;20195;-68
2023/05/09 07:12:46;;;;;;;3.63;1.73;;;14.30;99.90;;;;;;5088095;28;20199;-73
2023/05/09 07:15:12;;;;;;;6.80;2.47;;;14.20;99.90;;;;;;5073396;28;20280;-72
2023/05/09 07:17:38;;;;;;;5.88;2.60;;;14.00;99.90;;;;;;5094481;28;20182;-80
2023/05/09 07:20:05;;;;;;;9.40;2.75;;;14.10;99.90;;;;;;5091959;28;20262;-81
2023/05/09 07:22:30;;;;;;;6.75;3.15;;;14.10;99.90;;;;;;5090324;28;20172;-79
2023/05/09 07:24:56;;;;;;;4.72;2.80;;;14.00;99.90;;;;;;5090812;28;20200;-80
2023/05/09 07:27:22;;;;;;;5.57;3.03;;;13.80;99.90;;;;;;5074610;28;20660;-80
2023/05/09 07:29:50;;;;;;;7.93;2.88;;;13.90;99.90;;;;;;5071159;28;20644;-82
2023/05/09 07:32:15;;;;;;;4.97;2.63;;;13.90;99.90;;;;;;5071545;28;20156;-77
2023/05/09 07:34:41;;;;;;;9.52;2.78;;;13.90;99.90;;;;;;5089637;28;20226;-74
2023/05/09 07:37:07;;;;;;;4.70;2.63;;;13.90;99.90;;;;;;5091109;28;20194;-73
2023/05/09 07:39:32;;;;;;;9.13;3.22;;;14.00;99.90;;;;;;5089286;28;20179;-75
2023/05/09 07:41:58;;;;;;;5.13;3.15;;;14.20;99.90;;;;;;5071468;28;20164;-76
2023/05/09 07:44:23;;;;;;;8.93;3.30;;;14.20;99.90;;;;;;5082251;28;20206;-85
2023/05/09 07:46:49;;;;;;;8.15;3.20;;;14.40;99.90;;;;;;5091770;28;20188;-81
2023/05/09 07:49:14;;;;;;;8.85;2.80;;;14.40;99.90;;;;;;5059913;28;20188;-77
2023/05/09 07:51:40;;;;;;;8.82;2.70;;;;;;;;;;5070887;28;20529;-81
2023/05/09 07:54:08;;;;;;;6.32;2.78;;;14.30;99.90;;;;;;5070747;28;20260;-78
2023/05/09 07:56:34;;;;;;;8.43;2.72;;;14.20;99.90;;;;;;5052879;28;20192;-75
2023/05/09 07:59:00;;;;;;;7.47;3.10;;;14.70;99.90;;;;;;5079085;28;20535;-75
2023/05/09 08:01:26;;;;;;;6.93;2.40;;;14.30;99.90;;;;;;5089911;28;20207;-72
2023/05/09 08:03:52;;;;;;;6.68;2.38;;;14.50;99.90;;;;;;5077677;28;20196;-74
2023/05/09 08:06:17;;;;;;;8.07;2.88;;;14.40;99.90;;;;;;5070353;28;20224;-75
2023/05/09 08:08:43;;;;;;;4.28;1.95;;;;;;;;;;5071569;28;20165;-74
2023/05/09 08:11:09;;;;;;;6.40;2.35;;;14.60;99.90;;;;;;5071077;28;20184;-75
2023/05/09 08:13:35;;;;;;;4.57;2.30;;;14.90;99.90;;;;;;5071016;28;20173;-76
2023/05/09 08:16:01;;;;;;;4.85;2.03;;;15.00;99.90;;;;;;5078370;28;20184;-76
2023/05/09 08:18:27;;;;;;;6.75;2.28;;;15.10;99.90;;;;;;5073322;28;20180;-81
2023/05/09 08:20:52;;;;;;;4.10;1.77;;;15.30;99.90;;;;;;5071149;28;20173;-77
2023/05/09 08:23:18;;;;;;;2.42;1.27;;;15.20;99.90;;;;;;5086167;28;20171;-78
2023/05/09 08:25:43;;;;;;;3.58;1.50;;;15.10;99.90;;;;;;5081076;28;20208;-79
2023/05/09 08:28:09;;;;;;;8.23;1.67;;;15.00;99.90;;;;;;5070674;28;20688;-79
2023/05/09 08:30:35;;;;;;;4.20;1.20;;;15.00;99.90;;;;;;5070718;28;20184;-76
2023/05/09 08:33:01;;;;;;;9.98;1.30;;;15.10;99.90;;;;;;5082563;28;20220;-76
2023/05/09 08:35:26;;;;;;;24.25;2.92;;;14.90;99.90;;;;;;5093383;28;20271;-78
2023/05/09 08:37:52;;;;;;;5.20;1.00;;;14.90;99.90;;;;;;5095620;28;20279;-78
2023/05/09 08:40:18;;;;;;;2.88;1.00;;;14.70;99.90;;;;;;5074349;28;20177;-76
2023/05/09 08:42:44;;;;;;;1.50;1.00;;;14.70;99.90;;;;;;5073875;28;20164;-76
2023/05/09 08:45:15;;;;;;;2.10;0.80;;;14.80;99.90;;;;;;5073995;28;20205;-70
2023/05/09 08:47:41;;;;;;;1.45;0.90;;;14.80;99.90;;;;;;5075220;28;20180;-70
2023/05/09 08:50:09;;;;;;;1.20;0.90;;;14.50;99.90;;;;;;5081470;28;20667;-68
2023/05/09 08:52:34;;;;;;;1.85;0.70;;;14.50;99.90;;;;;;5073164;28;20164;-69
2023/05/09 08:55:05;;;;;;;1.63;0.80;;;14.60;99.90;;;;;;5073363;28;20171;-69
2023/05/09 08:57:33;;;;;;;2.70;1.05;;;14.60;99.90;;;;;;5073576;28;20633;-69
2023/05/09 08:59:59;;;;;;;3.38;1.35;;;14.80;99.90;;;;;;5073414;28;20196;-69
2023/05/09 09:02:25;;;;;;;6.28;0.93;;;14.70;99.90;;;;;;5055457;28;20257;-69
2023/05/09 09:04:52;;;;;;;67.18;4.97;;;14.70;99.90;;;;;;5055154;28;20211;-68
2023/05/09 09:07:18;;;;;;;2.40;1.00;;;14.90;99.90;;;;;;5053935;28;20648;-70
2023/05/09 09:09:46;;;;;;;0.75;0.73;;;14.90;99.90;;;;;;5072417;28;20157;-70
2023/05/09 09:12:14;;;;;;;1.88;1.00;;;15.00;99.90;;;;;;5072992;28;20252;-70
2023/05/09 09:14:45;;;;;;;3.28;1.00;;;15.00;99.90;;;;;;5073045;28;20187;-68
2023/05/09 09:17:14;;;;;;;1.90;1.20;;;14.90;99.90;;;;;;5073075;28;20171;-68
2023/05/09 09:19:43;;;;;;;1.52;1.02;;;15.00;99.90;;;;;;5072873;28;20226;-68
2023/05/09 09:22:14;;;;;;;3.13;1.40;;;15.30;99.90;;;;;;5073104;28;20200;-68
2023/05/09 09:24:40;;;;;;;2.40;1.30;;;15.40;99.90;;;;;;5076656;28;20679;-69
2023/05/09 09:27:06;;;;;;;2.67;1.63;;;15.40;99.90;;;;;;5072882;28;20187;-70
2023/05/09 09:29:32;;;;;;;30.48;3.60;;;15.40;99.90;;;;;;5074853;28;20541;-70
2023/05/09 09:32:01;;;;;;;4.18;1.08;;;15.20;99.90;;;;;;5093583;28;20243;-69
2023/05/09 09:34:28;;;;;;;3.55;1.10;;;15.10;99.90;;;;;;5073495;28;20229;-70
2023/05/09 09:36:54;;;;;;;2.20;1.00;;;15.20;99.90;;;;;;5087667;28;20204;-69
2023/05/09 09:39:20;;;;;;;2.03;1.13;;;15.40;99.90;;;;;;5090692;28;20636;-70
2023/05/09 09:41:46;;;;;;;2.40;0.98;;;15.50;99.90;;;;;;5093068;28;20186;-70
2023/05/09 09:44:14;;;;;;;2.22;1.10;;;15.60;99.90;;;;;;5092760;28;20259;-70
2023/05/09 09:46:50;;;;;;;2.78;1.00;;;15.70;99.90;;;;;;5091974;28;20240;-69
2023/05/09 09:49:17;;;;;;;3.35;1.33;;;15.90;99.90;;;;;;5088947;28;20244;-69
2023/05/09 09:51:44;;;;;;;1.80;1.13;;;15.70;99.90;;;;;;5077435;28;20173;-69
2023/05/09 09:54:11;;;;;;;1.23;1.08;;;15.60;99.90;;;;;;5086731;28;20691;-69
2023/05/09 09:56:41;;;;;;;1.75;1.00;;;15.60;99.90;;;;;;5092620;28;20176;-69
2023/05/09 09:59:14;;;;;;;1.67;1.00;;;15.60;99.90;;;;;;5082772;28;20172;-69
2023/05/09 10:02:03;;;;;;;4.55;1.25;;;15.60;99.90;;;;;;5071807;28;20175;-71
2023/05/09 10:04:33;;;;;;;2.38;1.30;;;15.70;99.90;;;;;;5077735;28;20263;-70
2023/05/09 10:07:09;;;;;;;1.75;1.40;;;15.60;99.90;;;;;;5080817;28;20183;-69
2023/05/09 10:09:36;;;;;;;4.78;1.45;;;15.70;99.90;;;;;;5092574;28;20163;-69
2023/05/09 10:12:07;;;;;;;2.13;1.50;;;15.90;99.90;;;;;;5086796;28;20168;-69
2023/05/09 10:14:40;;;;;;;2.08;1.50;;;15.90;99.90;;;;;;5071994;28;20213;-70
2023/05/09 10:17:07;;;;;;;5.32;1.80;;;16.00;99.90;;;;;;5076902;28;20659;-70
2023/05/09 10:19:36;;;;;;;2.88;1.70;;;16.00;99.90;;;;;;5076168;28;20636;-69
2023/05/09 10:22:05;;;;;;;2.10;1.30;;;15.80;99.90;;;;;;5092657;28;20239;-69
2023/05/09 10:24:39;;;;;;;1.92;1.30;;;15.80;99.90;;;;;;5077157;28;20724;-70
2023/05/09 10:27:11;;;;;;;2.45;1.20;;;15.80;99.90;;;;;;5076249;28;20188;-70
2023/05/09 10:29:43;;;;;;;3.67;1.40;;;15.80;99.90;;;;;;5082147;28;20173;-70
2023/05/09 10:32:22;;;;;;;2.72;1.10;;;15.80;99.90;;;;;;5071795;28;20228;-69
2023/05/09 10:34:52;;;;;;;5.90;1.10;;;15.80;99.90;;;;;;5079740;28;20270;-70
2023/05/09 10:37:20;;;;;;;5.20;1.35;;;15.80;99.90;;;;;;5087580;28;20171;-69
2023/05/09 10:39:46;;;;;;;4.28;1.38;;;16.10;99.90;;;;;;5091706;28;20188;-70
2023/05/09 10:42:13;;;;;;;1.52;1.08;;;17.70;99.90;;;;;;5091886;28;20179;-70
2023/05/09 10:44:38;;;;;;;2.55;1.30;;;16.30;99.90;;;;;;5091732;28;20630;-70
2023/05/09 10:47:05;;;;;;;3.10;1.20;;;16.30;99.90;;;;;;5090087;28;20176;-70
2023/05/09 10:49:31;;;;;;;2.13;1.50;;;16.50;99.90;;;;;;5090266;28;20208;-70
2023/05/09 10:51:57;;;;;;;1.65;1.30;;;16.60;99.90;;;;;;5090644;28;20247;-69
2023/05/09 10:54:27;;;;;;;2.28;1.40;;;16.60;99.90;;;;;;5091855;28;20203;-69
2023/05/09 10:56:54;;;;;;;1.50;1.27;;;16.40;99.90;;;;;;5084482;28;20172;-70
2023/05/09 10:59:39;;;;;;;1.70;1.10;;;16.30;99.90;;;;;;5083357;28;20212;-69
2023/05/09 11:02:10;;;;;;;4.55;1.33;;;16.50;99.90;;;;;;5083991;28;20663;-69
2023/05/09 11:04:38;;;;;;;2.00;1.33;;;16.50;99.90;;;;;;5091545;28;20200;-67
2023/05/09 11:07:25;;;;;;;2.17;1.23;;;16.90;99.90;;;;;;5089999;28;20233;-68
2023/05/09 11:09:52;;;;;;;3.15;1.63;;;16.60;99.90;;;;;;5083514;28;20176;-69
2023/05/09 11:12:22;;;;;;;6.07;1.50;;;16.80;99.90;;;;;;5076809;28;20191;-69
2023/05/09 11:14:54;;;;;;;1.38;1.00;;;17.00;99.90;;;;;;5080973;28;20180;-70
2023/05/09 11:17:20;;;;;;;2.40;1.30;;;17.40;99.90;;;;;;5091198;28;20296;-69
2023/05/09 11:19:46;;;;;;;1.75;1.10;;;17.60;99.90;;;;;;5091527;28;20675;-68
2023/05/09 11:22:26;;;;;;;3.22;1.50;;;17.50;99.90;;;;;;5073252;28;20175;-68
2023/05/09 11:25:12;;;;;;;4.07;1.58;;;17.60;99.90;;;;;;5090618;28;20207;-69
2023/05/09 11:27:43;;;;;;;2.40;1.40;;;17.60;99.90;;;;;;5091717;28;20663;-69
2023/05/09 11:30:11;;;;;;;6.75;1.50;;;17.50;99.90;;;;;;5085570;28;20200;-69
2023/05/09 11:32:44;;;;;;;4.60;1.83;;;17.50;99.90;;;;;;5070039;28;20252;-69
2023/05/09 11:35:13;;;;;;;2.33;1.40;;;17.60;99.90;;;;;;5070302;28;20172;-69
2023/05/09 11:37:53;;;;;;;2.05;1.60;;;17.50;99.90;;;;;;5070340;28;20258;-70
2023/05/09 11:40:21;;;;;;;2.65;1.50;;;17.40;99.90;;;;;;5070383;28;20164;-69
2023/05/09 11:42:54;;;;;;;2.95;1.65;;;17.70;99.90;;;;;;5079356;28;20198;-70
2023/05/09 11:45:22;;;;;;;3.42;1.63;;;18.10;99.90;;;;;;5090866;28;20211;-69
2023/05/09 11:47:48;;;;;;;3.75;1.70;;;18.20;99.90;;;;;;5090822;28;20166;-69
2023/05/09 11:50:16;;;;;;;2.33;1.75;;;18.30;99.90;;;;;;5091135;28;20167;-69
2023/05/09 11:52:42;;;;;;;2.90;2.17;;;18.40;99.90;;;;;;5090809;28;20184;-70
2023/05/09 11:55:13;;;;;;;1.83;1.52;;;18.40;99.90;;;;;;5091001;28;20343;-69
2023/05/09 11:57:48;;;;;;;3.05;1.70;;;18.60;99.90;;;;;;5090926;28;20206;-69
2023/05/09 12:00:32;;;;;;;1.67;1.30;;;18.50;99.90;;;;;;5090865;28;20172;-68
2023/05/09 12:02:57;;;;;;;2.53;1.55;;;19.20;99.90;;;;;;5091054;28;20168;-68
2023/05/09 12:05:23;;;;;;;3.13;1.20;;;19.90;99.90;;;;;;5090741;28;20207;-69
2023/05/09 12:07:49;;;;;;;2.30;1.30;;;20.00;99.90;;;;;;5090907;28;20168;-69
2023/05/09 12:10:19;;;;;;;1.80;1.33;;;20.20;99.90;;;;;;5094467;28;20259;-70
2023/05/09 12:12:50;;;;;;;1.48;1.20;;;20.10;99.90;;;;;;5095080;28;20262;-68
2023/05/09 12:15:17;;;;;;;3.15;1.48;;;20.10;99.90;;;;;;5095277;28;20172;-70
2023/05/09 12:17:44;;;;;;;4.28;1.40;;;20.10;99.90;;;;;;5094714;28;20588;-70
2023/05/09 12:20:11;;;;;;;2.60;1.33;;;20.40;99.90;;;;;;5078831;28;20660;-69
2023/05/09 12:22:36;;;;;;;1.55;1.10;;;21.00;99.90;;;;;;5074673;28;20318;-69
2023/05/09 12:25:08;;;;;;;2.38;1.00;;;21.40;99.90;;;;;;5074510;28;20287;-69
2023/05/09 12:27:35;;;;;;;3.13;1.15;;;21.40;99.90;;;;;;5074402;28;20177;-68
2023/05/09 12:30:07;;;;;;;2.13;1.00;;;21.30;99.90;;;;;;5074361;28;20160;-69
2023/05/09 12:32:33;;;;;;;11.48;1.20;;;21.30;99.90;;;;;;5075714;28;20179;-70
2023/05/09 12:34:59;;;;;;;2.53;0.93;;;22.20;99.90;;;;;;5074287;28;20542;-68
2023/05/09 12:37:25;;;;;;;0.95;0.70;;;21.70;99.90;;;;;;5074253;28;20255;-69
2023/05/09 12:40:01;;;;;;;2.35;0.90;;;22.30;99.90;;;;;;5074234;28;20570;-69
2023/05/09 12:42:34;;;;;;;0.80;0.60;;;23.10;99.90;;;;;;5074304;28;20225;-69
2023/05/09 12:45:06;;;;;;;0.63;0.50;;;22.70;99.90;;;;;;5074105;28;20675;-69
2023/05/09 12:47:32;;;;;;;1.80;0.73;;;22.20;99.90;;;;;;5074024;28;20215;-69
2023/05/09 12:50:03;;;;;;;3.03;1.00;;;22.10;99.90;;;;;;5074260;28;20180;-68